sensor_id;sensor_type;location;lat;lon;timestamp;pressure;altitude;pressure_sealevel;temperature;humidity
45050;BME280;61798;48.048;-1.928;2022-08-20T00:01:46;101239.88;;;13.35;95.70
45050;BME280;61798;48.048;-1.928;2022-08-20T00:03:53;101239.09;;;13.41;95.26
45050;BME280;61798;48.048;-1.928;2022-08-20T00:06:07;101250.06;;;13.40;95.35
45050;BME280;61798;48.048;-1.928;2022-08-20T00:08:13;101241.09;;;13.32;95.45
45050;BME280;61798;48.048;-1.928;2022-08-20T00:10:20;101243.22;;;13.37;95.38
45050;BME280;61798;48.048;-1.928;2022-08-20T00:12:27;101250.63;;;13.35;94.76
45050;BME280;61798;48.048;-1.928;2022-08-20T00:14:34;101245.22;;;13.28;94.87
45050;BME280;61798;48.048;-1.928;2022-08-20T00:16:40;101244.28;;;13.14;95.11
45050;BME280;61798;48.048;-1.928;2022-08-20T00:18:47;101244.72;;;13.18;94.56
45050;BME280;61798;48.048;-1.928;2022-08-20T00:20:55;101211.19;;;12.92;95.10
45050;BME280;61798;48.048;-1.928;2022-08-20T00:23:01;101218.88;;;12.95;94.53
45050;BME280;61798;48.048;-1.928;2022-08-20T00:25:09;101243.78;;;13.04;95.02
45050;BME280;61798;48.048;-1.928;2022-08-20T00:27:15;101243.97;;;13.02;94.51
45050;BME280;61798;48.048;-1.928;2022-08-20T00:29:21;101227.22;;;12.78;95.46
45050;BME280;61798;48.048;-1.928;2022-08-20T00:31:27;101243.66;;;12.90;95.72
45050;BME280;61798;48.048;-1.928;2022-08-20T00:33:33;101242.78;;;12.83;95.99
45050;BME280;61798;48.048;-1.928;2022-08-20T00:35:44;101220.59;;;12.74;95.35
45050;BME280;61798;48.048;-1.928;2022-08-20T00:37:50;101249.13;;;12.97;95.27
45050;BME280;61798;48.048;-1.928;2022-08-20T00:39:56;101232.53;;;12.93;94.91
45050;BME280;61798;48.048;-1.928;2022-08-20T00:42:03;101240.66;;;13.00;95.21
45050;BME280;61798;48.048;-1.928;2022-08-20T00:44:20;101240.84;;;12.98;95.35
45050;BME280;61798;48.048;-1.928;2022-08-20T00:46:27;101250.31;;;12.94;95.71
45050;BME280;61798;48.048;-1.928;2022-08-20T00:48:35;101246.66;;;13.02;96.37
45050;BME280;61798;48.048;-1.928;2022-08-20T00:50:42;101243.66;;;13.12;95.63
45050;BME280;61798;48.048;-1.928;2022-08-20T00:52:49;101244.81;;;13.31;94.87
45050;BME280;61798;48.048;-1.928;2022-08-20T00:55:00;101241.97;;;13.40;94.05
45050;BME280;61798;48.048;-1.928;2022-08-20T00:57:10;101248.88;;;13.49;93.94
45050;BME280;61798;48.048;-1.928;2022-08-20T00:59:20;101244.84;;;13.38;94.04
45050;BME280;61798;48.048;-1.928;2022-08-20T01:01:27;101213.66;;;13.15;94.13
45050;BME280;61798;48.048;-1.928;2022-08-20T01:03:34;101240.16;;;13.18;95.41
45050;BME280;61798;48.048;-1.928;2022-08-20T01:05:43;101230.22;;;13.19;95.36
45050;BME280;61798;48.048;-1.928;2022-08-20T01:07:53;101221.81;;;13.29;94.20
45050;BME280;61798;48.048;-1.928;2022-08-20T01:10:09;101248.50;;;13.59;92.83
45050;BME280;61798;48.048;-1.928;2022-08-20T01:12:17;101231.75;;;13.57;92.63
45050;BME280;61798;48.048;-1.928;2022-08-20T01:14:23;101251.47;;;13.64;92.61
45050;BME280;61798;48.048;-1.928;2022-08-20T01:16:33;101251.16;;;13.52;93.14
45050;BME280;61798;48.048;-1.928;2022-08-20T01:18:41;101241.88;;;13.26;95.11
45050;BME280;61798;48.048;-1.928;2022-08-20T01:20:58;101249.38;;;13.31;95.95
45050;BME280;61798;48.048;-1.928;2022-08-20T01:27:53;101230.53;;;13.31;96.54
45050;BME280;61798;48.048;-1.928;2022-08-20T01:30:01;101232.44;;;13.37;96.52
45050;BME280;61798;48.048;-1.928;2022-08-20T01:32:07;101230.13;;;13.34;95.91
45050;BME280;61798;48.048;-1.928;2022-08-20T01:34:15;101234.09;;;13.38;96.28
45050;BME280;61798;48.048;-1.928;2022-08-20T01:36:26;101248.19;;;13.40;96.12
45050;BME280;61798;48.048;-1.928;2022-08-20T01:38:34;101253.38;;;13.42;95.88
45050;BME280;61798;48.048;-1.928;2022-08-20T01:43:05;101239.03;;;13.35;96.36
45050;BME280;61798;48.048;-1.928;2022-08-20T01:45:13;101236.56;;;13.33;95.48
45050;BME280;61798;48.048;-1.928;2022-08-20T01:47:27;101261.00;;;13.38;95.13
45050;BME280;61798;48.048;-1.928;2022-08-20T01:49:34;101240.31;;;13.39;95.33
45050;BME280;61798;48.048;-1.928;2022-08-20T01:51:41;101246.06;;;13.29;95.04
45050;BME280;61798;48.048;-1.928;2022-08-20T01:53:50;101253.91;;;13.30;95.32
45050;BME280;61798;48.048;-1.928;2022-08-20T01:55:56;101240.81;;;13.20;95.09
45050;BME280;61798;48.048;-1.928;2022-08-20T01:58:02;101249.13;;;13.26;95.28
45050;BME280;61798;48.048;-1.928;2022-08-20T02:00:13;101256.66;;;13.37;95.29
45050;BME280;61798;48.048;-1.928;2022-08-20T02:02:20;101240.41;;;13.24;95.20
45050;BME280;61798;48.048;-1.928;2022-08-20T02:04:26;101236.84;;;13.16;95.62
45050;BME280;61798;48.048;-1.928;2022-08-20T02:06:39;101253.88;;;13.24;95.26
45050;BME280;61798;48.048;-1.928;2022-08-20T02:08:46;101240.78;;;13.14;95.00
45050;BME280;61798;48.048;-1.928;2022-08-20T02:10:52;101256.31;;;13.18;94.71
45050;BME280;61798;48.048;-1.928;2022-08-20T02:12:59;101249.66;;;13.14;95.32
45050;BME280;61798;48.048;-1.928;2022-08-20T02:15:07;101251.44;;;13.29;94.96
45050;BME280;61798;48.048;-1.928;2022-08-20T02:17:15;101256.59;;;13.59;92.73
45050;BME280;61798;48.048;-1.928;2022-08-20T02:22:22;101231.72;;;13.21;93.45
45050;BME280;61798;48.048;-1.928;2022-08-20T02:24:29;101201.81;;;12.81;94.55
45050;BME280;61798;48.048;-1.928;2022-08-20T02:26:35;101228.63;;;12.96;95.26
45050;BME280;61798;48.048;-1.928;2022-08-20T02:28:42;101236.19;;;13.14;94.47
45050;BME280;61798;48.048;-1.928;2022-08-20T02:30:52;101236.72;;;13.03;94.66
45050;BME280;61798;48.048;-1.928;2022-08-20T02:33:01;101240.47;;;13.02;95.54
45050;BME280;61798;48.048;-1.928;2022-08-20T02:35:10;101238.22;;;13.05;94.79
45050;BME280;61798;48.048;-1.928;2022-08-20T02:37:17;101230.59;;;13.09;94.35
45050;BME280;61798;48.048;-1.928;2022-08-20T02:39:23;101232.50;;;13.15;93.85
45050;BME280;61798;48.048;-1.928;2022-08-20T02:41:31;101180.38;;;12.94;92.58
45050;BME280;61798;48.048;-1.928;2022-08-20T02:43:37;101235.47;;;13.27;92.82
45050;BME280;61798;48.048;-1.928;2022-08-20T02:45:44;101198.31;;;12.87;93.07
45050;BME280;61798;48.048;-1.928;2022-08-20T02:47:50;101232.75;;;12.98;93.93
45050;BME280;61798;48.048;-1.928;2022-08-20T02:50:01;101207.94;;;12.74;94.96
45050;BME280;61798;48.048;-1.928;2022-08-20T02:52:08;101189.16;;;12.52;95.00
45050;BME280;61798;48.048;-1.928;2022-08-20T02:54:14;101225.13;;;12.73;95.10
45050;BME280;61798;48.048;-1.928;2022-08-20T02:56:20;101223.44;;;12.72;95.06
45050;BME280;61798;48.048;-1.928;2022-08-20T02:58:27;101222.13;;;12.90;95.72
45050;BME280;61798;48.048;-1.928;2022-08-20T03:00:33;101204.56;;;12.65;95.37
45050;BME280;61798;48.048;-1.928;2022-08-20T03:02:39;101197.34;;;12.66;95.40
45050;BME280;61798;48.048;-1.928;2022-08-20T03:04:45;101213.72;;;12.71;95.11
45050;BME280;61798;48.048;-1.928;2022-08-20T03:06:51;101215.97;;;12.89;94.95
45050;BME280;61798;48.048;-1.928;2022-08-20T03:08:57;101202.00;;;12.79;94.71
45050;BME280;61798;48.048;-1.928;2022-08-20T03:11:04;101201.81;;;12.81;95.60
45050;BME280;61798;48.048;-1.928;2022-08-20T03:13:11;101207.44;;;12.86;95.57
45050;BME280;61798;48.048;-1.928;2022-08-20T03:15:18;101202.06;;;12.86;94.95
45050;BME280;61798;48.048;-1.928;2022-08-20T03:17:24;101202.00;;;12.79;95.01
45050;BME280;61798;48.048;-1.928;2022-08-20T03:19:30;101191.81;;;12.74;94.05
45050;BME280;61798;48.048;-1.928;2022-08-20T03:21:36;101197.41;;;12.73;94.08
45050;BME280;61798;48.048;-1.928;2022-08-20T03:23:42;101188.44;;;12.43;95.42
45050;BME280;61798;48.048;-1.928;2022-08-20T03:25:48;101199.41;;;12.42;95.66
45050;BME280;61798;48.048;-1.928;2022-08-20T03:27:55;101207.78;;;12.54;96.24
45050;BME280;61798;48.048;-1.928;2022-08-20T03:30:04;101185.41;;;12.31;95.72
45050;BME280;61798;48.048;-1.928;2022-08-20T03:32:10;101201.53;;;12.31;95.55
45050;BME280;61798;48.048;-1.928;2022-08-20T03:34:16;101182.50;;;12.26;95.20
45050;BME280;61798;48.048;-1.928;2022-08-20T03:36:23;101202.56;;;12.30;95.35
45050;BME280;61798;48.048;-1.928;2022-08-20T03:38:29;101194.00;;;12.20;95.15
45050;BME280;61798;48.048;-1.928;2022-08-20T03:40:37;101197.78;;;12.25;95.12
45050;BME280;61798;48.048;-1.928;2022-08-20T03:42:43;101193.81;;;12.21;95.04
45050;BME280;61798;48.048;-1.928;2022-08-20T03:44:49;101160.16;;;12.10;95.58
45050;BME280;61798;48.048;-1.928;2022-08-20T03:46:54;101190.56;;;12.26;95.81
45050;BME280;61798;48.048;-1.928;2022-08-20T03:49:00;101177.13;;;12.11;96.18
45050;BME280;61798;48.048;-1.928;2022-08-20T03:51:06;101213.84;;;12.41;96.50
45050;BME280;61798;48.048;-1.928;2022-08-20T03:53:13;101213.47;;;12.44;96.70
45050;BME280;61798;48.048;-1.928;2022-08-20T03:55:21;101205.84;;;12.47;96.22
45050;BME280;61798;48.048;-1.928;2022-08-20T03:57:27;101173.28;;;12.35;96.38
45050;BME280;61798;48.048;-1.928;2022-08-20T03:59:33;101185.06;;;12.56;95.93
45050;BME280;61798;48.048;-1.928;2022-08-20T04:01:39;101195.41;;;12.60;96.19
45050;BME280;61798;48.048;-1.928;2022-08-20T04:03:45;101192.22;;;12.49;96.01
45050;BME280;61798;48.048;-1.928;2022-08-20T04:05:52;101210.00;;;12.72;94.51
45050;BME280;61798;48.048;-1.928;2022-08-20T04:07:59;101218.19;;;12.64;95.24
45050;BME280;61798;48.048;-1.928;2022-08-20T04:10:08;101205.41;;;12.66;93.90
45050;BME280;61798;48.048;-1.928;2022-08-20T04:12:15;101202.72;;;12.44;95.17
45050;BME280;61798;48.048;-1.928;2022-08-20T04:14:21;101203.16;;;12.25;95.96
45050;BME280;61798;48.048;-1.928;2022-08-20T04:16:26;101160.72;;;12.21;95.23
45050;BME280;61798;48.048;-1.928;2022-08-20T04:18:33;101189.97;;;12.53;93.89
45050;BME280;61798;48.048;-1.928;2022-08-20T04:20:42;101204.50;;;12.58;93.38
45050;BME280;61798;48.048;-1.928;2022-08-20T04:22:49;101213.47;;;12.44;94.71
45050;BME280;61798;48.048;-1.928;2022-08-20T04:24:55;101199.63;;;12.25;94.51
45050;BME280;61798;48.048;-1.928;2022-08-20T04:27:02;101170.38;;;12.00;94.98
45050;BME280;61798;48.048;-1.928;2022-08-20T04:29:09;101208.53;;;12.25;95.06
45050;BME280;61798;48.048;-1.928;2022-08-20T04:31:15;101190.28;;;12.43;93.87
45050;BME280;61798;48.048;-1.928;2022-08-20T04:33:22;101206.81;;;12.62;92.90
45050;BME280;61798;48.048;-1.928;2022-08-20T04:35:31;101214.41;;;12.58;93.59
45050;BME280;61798;48.048;-1.928;2022-08-20T04:37:37;101196.09;;;12.46;93.18
45050;BME280;61798;48.048;-1.928;2022-08-20T04:39:47;101218.31;;;12.33;94.64
45050;BME280;61798;48.048;-1.928;2022-08-20T04:42:13;101198.97;;;12.23;95.40
45050;BME280;61798;48.048;-1.928;2022-08-20T04:44:19;101215.75;;;12.25;95.13
45050;BME280;61798;48.048;-1.928;2022-08-20T04:46:26;101224.53;;;12.34;95.54
45050;BME280;61798;48.048;-1.928;2022-08-20T04:48:33;101211.22;;;12.47;93.68
45050;BME280;61798;48.048;-1.928;2022-08-20T04:50:42;101202.72;;;12.66;92.27
45050;BME280;61798;48.048;-1.928;2022-08-20T04:52:49;101200.72;;;12.75;91.77
45050;BME280;61798;48.048;-1.928;2022-08-20T04:54:55;101223.94;;;12.83;91.09
45050;BME280;61798;48.048;-1.928;2022-08-20T04:57:01;101214.44;;;13.09;89.89
45050;BME280;61798;48.048;-1.928;2022-08-20T04:59:07;101205.28;;;13.03;89.65
45050;BME280;61798;48.048;-1.928;2022-08-20T05:01:13;101199.56;;;12.40;91.26
45050;BME280;61798;48.048;-1.928;2022-08-20T05:03:20;101208.25;;;12.42;92.36
45050;BME280;61798;48.048;-1.928;2022-08-20T05:05:26;101206.41;;;12.43;91.84
45050;BME280;61798;48.048;-1.928;2022-08-20T05:07:37;101197.34;;;12.44;91.79
45050;BME280;61798;48.048;-1.928;2022-08-20T05:09:44;101230.41;;;12.88;91.01
45050;BME280;61798;48.048;-1.928;2022-08-20T05:11:49;101226.72;;;12.67;90.62
45050;BME280;61798;48.048;-1.928;2022-08-20T05:13:55;101235.03;;;12.51;92.25
45050;BME280;61798;48.048;-1.928;2022-08-20T05:16:02;101223.31;;;12.36;93.97
45050;BME280;61798;48.048;-1.928;2022-08-20T05:18:09;101233.06;;;12.37;93.29
45050;BME280;61798;48.048;-1.928;2022-08-20T05:20:16;101240.06;;;12.39;93.89
45050;BME280;61798;48.048;-1.928;2022-08-20T05:22:22;101221.66;;;12.35;93.96
45050;BME280;61798;48.048;-1.928;2022-08-20T05:24:29;101205.56;;;12.42;92.60
45050;BME280;61798;48.048;-1.928;2022-08-20T05:26:35;101224.47;;;12.49;92.85
45050;BME280;61798;48.048;-1.928;2022-08-20T05:28:41;101204.28;;;12.38;93.64
45050;BME280;61798;48.048;-1.928;2022-08-20T05:30:48;101228.47;;;12.53;93.50
45050;BME280;61798;48.048;-1.928;2022-08-20T05:32:54;101217.56;;;12.40;93.59
45050;BME280;61798;48.048;-1.928;2022-08-20T05:35:01;101236.53;;;12.53;93.40
45050;BME280;61798;48.048;-1.928;2022-08-20T05:37:08;101237.03;;;12.42;94.65
45050;BME280;61798;48.048;-1.928;2022-08-20T05:39:16;101224.38;;;12.42;94.41
45050;BME280;61798;48.048;-1.928;2022-08-20T05:41:22;101237.53;;;12.52;94.18
45050;BME280;61798;48.048;-1.928;2022-08-20T05:43:28;101242.91;;;12.52;94.04
45050;BME280;61798;48.048;-1.928;2022-08-20T05:45:36;101238.44;;;12.60;93.12
45050;BME280;61798;48.048;-1.928;2022-08-20T05:47:42;101248.06;;;12.98;91.61
45050;BME280;61798;48.048;-1.928;2022-08-20T05:49:49;101245.53;;;12.89;91.59
45050;BME280;61798;48.048;-1.928;2022-08-20T05:51:55;101246.59;;;12.95;91.25
45050;BME280;61798;48.048;-1.928;2022-08-20T05:54:02;101237.28;;;12.69;92.21
45050;BME280;61798;48.048;-1.928;2022-08-20T05:56:08;101237.19;;;12.62;92.95
45050;BME280;61798;48.048;-1.928;2022-08-20T05:58:22;101260.09;;;12.73;93.01
45050;BME280;61798;48.048;-1.928;2022-08-20T06:00:29;101236.00;;;12.65;93.34
45050;BME280;61798;48.048;-1.928;2022-08-20T06:02:35;101256.94;;;12.92;92.96
45050;BME280;61798;48.048;-1.928;2022-08-20T06:05:00;101250.44;;;13.08;92.52
45050;BME280;61798;48.048;-1.928;2022-08-20T06:07:06;101225.97;;;13.03;90.91
45050;BME280;61798;48.048;-1.928;2022-08-20T06:09:14;101253.75;;;13.10;92.55
45050;BME280;61798;48.048;-1.928;2022-08-20T06:11:21;101221.13;;;12.91;93.55
45050;BME280;61798;48.048;-1.928;2022-08-20T06:13:30;101226.38;;;12.99;93.62
45050;BME280;61798;48.048;-1.928;2022-08-20T06:15:38;101217.72;;;13.04;93.14
45050;BME280;61798;48.048;-1.928;2022-08-20T06:17:46;101248.38;;;13.39;91.07
45050;BME280;61798;48.048;-1.928;2022-08-20T06:19:53;101247.41;;;13.47;90.71
45050;BME280;61798;48.048;-1.928;2022-08-20T06:22:01;101258.13;;;13.69;88.85
45050;BME280;61798;48.048;-1.928;2022-08-20T06:24:08;101259.97;;;13.61;89.78
45050;BME280;61798;48.048;-1.928;2022-08-20T06:26:15;101237.47;;;13.47;90.58
45050;BME280;61798;48.048;-1.928;2022-08-20T06:28:22;101246.56;;;13.46;90.71
45050;BME280;61798;48.048;-1.928;2022-08-20T06:30:30;101237.44;;;13.40;91.46
45050;BME280;61798;48.048;-1.928;2022-08-20T06:32:37;101219.13;;;13.29;91.64
45050;BME280;61798;48.048;-1.928;2022-08-20T06:34:46;101242.13;;;13.60;90.04
45050;BME280;61798;48.048;-1.928;2022-08-20T06:36:54;101243.00;;;14.17;86.38
45050;BME280;61798;48.048;-1.928;2022-08-20T06:39:01;101253.38;;;14.20;87.66
45050;BME280;61798;48.048;-1.928;2022-08-20T06:41:09;101242.00;;;13.76;88.23
45050;BME280;61798;48.048;-1.928;2022-08-20T06:43:15;101233.25;;;13.67;88.67
45050;BME280;61798;48.048;-1.928;2022-08-20T06:45:23;101250.50;;;13.79;89.04
45050;BME280;61798;48.048;-1.928;2022-08-20T06:47:30;101254.28;;;13.85;88.95
45050;BME280;61798;48.048;-1.928;2022-08-20T06:49:36;101221.88;;;13.71;89.97
45050;BME280;61798;48.048;-1.928;2022-08-20T06:51:42;101234.34;;;13.79;89.31
45050;BME280;61798;48.048;-1.928;2022-08-20T06:53:50;101256.16;;;13.91;88.16
45050;BME280;61798;48.048;-1.928;2022-08-20T06:55:57;101257.69;;;14.08;86.89
45050;BME280;61798;48.048;-1.928;2022-08-20T06:58:07;101253.53;;;14.05;87.97
45050;BME280;61798;48.048;-1.928;2022-08-20T07:00:16;101251.28;;;14.09;89.00
45050;BME280;61798;48.048;-1.928;2022-08-20T07:02:30;101237.22;;;14.20;87.71
45050;BME280;61798;48.048;-1.928;2022-08-20T07:04:39;101242.81;;;14.25;86.64
45050;BME280;61798;48.048;-1.928;2022-08-20T07:06:49;101232.25;;;14.31;86.07
45050;BME280;61798;48.048;-1.928;2022-08-20T07:08:58;101237.03;;;14.35;86.73
45050;BME280;61798;48.048;-1.928;2022-08-20T07:11:04;101200.28;;;14.14;85.66
45050;BME280;61798;48.048;-1.928;2022-08-20T07:13:12;101253.84;;;14.37;84.00
45050;BME280;61798;48.048;-1.928;2022-08-20T07:15:23;101251.78;;;14.40;82.98
45050;BME280;61798;48.048;-1.928;2022-08-20T07:17:36;101261.53;;;14.47;82.30
45050;BME280;61798;48.048;-1.928;2022-08-20T07:19:46;101239.97;;;14.41;81.27
45050;BME280;61798;48.048;-1.928;2022-08-20T07:21:57;101261.78;;;14.59;82.43
45050;BME280;61798;48.048;-1.928;2022-08-20T07:24:03;101243.28;;;14.49;83.63
45050;BME280;61798;48.048;-1.928;2022-08-20T07:26:18;101228.56;;;14.59;83.67
45050;BME280;61798;48.048;-1.928;2022-08-20T07:28:26;101260.97;;;14.86;83.43
45050;BME280;61798;48.048;-1.928;2022-08-20T07:30:35;101236.66;;;14.59;84.41
45050;BME280;61798;48.048;-1.928;2022-08-20T07:32:59;101251.22;;;14.72;83.53
45050;BME280;61798;48.048;-1.928;2022-08-20T07:35:10;101268.88;;;15.01;83.66
45050;BME280;61798;48.048;-1.928;2022-08-20T07:37:18;101263.31;;;15.03;82.58
45050;BME280;61798;48.048;-1.928;2022-08-20T07:39:25;101274.72;;;15.32;82.78
45050;BME280;61798;48.048;-1.928;2022-08-20T07:41:32;101258.53;;;15.32;82.37
45050;BME280;61798;48.048;-1.928;2022-08-20T07:43:40;101267.88;;;15.16;81.91
45050;BME280;61798;48.048;-1.928;2022-08-20T07:45:48;101267.03;;;15.16;82.18
45050;BME280;61798;48.048;-1.928;2022-08-20T07:48:10;101267.84;;;15.30;82.40
45050;BME280;61798;48.048;-1.928;2022-08-20T07:50:20;101269.91;;;15.48;83.17
45050;BME280;61798;48.048;-1.928;2022-08-20T07:52:29;101266.34;;;15.61;82.72
45050;BME280;61798;48.048;-1.928;2022-08-20T07:54:38;101253.25;;;15.58;82.71
45050;BME280;61798;48.048;-1.928;2022-08-20T07:56:45;101254.28;;;15.57;81.19
45050;BME280;61798;48.048;-1.928;2022-08-20T07:58:54;101270.31;;;15.59;81.38
45050;BME280;61798;48.048;-1.928;2022-08-20T08:01:03;101249.88;;;15.83;79.19
45050;BME280;61798;48.048;-1.928;2022-08-20T08:03:11;101262.94;;;15.86;80.88
45050;BME280;61798;48.048;-1.928;2022-08-20T08:05:17;101252.06;;;16.07;78.04
45050;BME280;61798;48.048;-1.928;2022-08-20T08:07:26;101267.88;;;16.03;81.25
45050;BME280;61798;48.048;-1.928;2022-08-20T08:09:34;101256.28;;;15.89;79.46
45050;BME280;61798;48.048;-1.928;2022-08-20T08:11:44;101276.00;;;15.96;78.58
45050;BME280;61798;48.048;-1.928;2022-08-20T08:13:58;101272.66;;;16.01;76.92
45050;BME280;61798;48.048;-1.928;2022-08-20T08:16:06;101273.78;;;15.80;79.19
45050;BME280;61798;48.048;-1.928;2022-08-20T08:18:20;101255.59;;;16.07;76.84
45050;BME280;61798;48.048;-1.928;2022-08-20T08:20:29;101271.28;;;16.38;76.52
45050;BME280;61798;48.048;-1.928;2022-08-20T08:22:37;101254.13;;;16.19;74.86
45050;BME280;61798;48.048;-1.928;2022-08-20T08:24:45;101280.56;;;16.03;75.02
45050;BME280;61798;48.048;-1.928;2022-08-20T08:26:54;101290.75;;;16.01;75.60
45050;BME280;61798;48.048;-1.928;2022-08-20T08:29:00;101268.09;;;16.02;76.02
45050;BME280;61798;48.048;-1.928;2022-08-20T08:31:07;101247.50;;;16.47;74.24
45050;BME280;61798;48.048;-1.928;2022-08-20T08:33:28;101276.81;;;16.50;75.77
45050;BME280;61798;48.048;-1.928;2022-08-20T08:35:40;101278.19;;;16.66;77.87
45050;BME280;61798;48.048;-1.928;2022-08-20T08:37:52;101291.97;;;17.23;74.08
45050;BME280;61798;48.048;-1.928;2022-08-20T08:39:58;101294.69;;;16.90;72.65
45050;BME280;61798;48.048;-1.928;2022-08-20T08:42:20;101275.00;;;16.44;75.79
45050;BME280;61798;48.048;-1.928;2022-08-20T08:44:36;101277.00;;;16.55;75.67
45050;BME280;61798;48.048;-1.928;2022-08-20T08:46:45;101245.38;;;16.56;74.33
45050;BME280;61798;48.048;-1.928;2022-08-20T08:48:56;101267.16;;;16.94;72.42
45050;BME280;61798;48.048;-1.928;2022-08-20T08:51:05;101270.00;;;16.73;74.42
45050;BME280;61798;48.048;-1.928;2022-08-20T08:53:21;101275.22;;;17.00;72.26
45050;BME280;61798;48.048;-1.928;2022-08-20T08:55:30;101257.34;;;16.99;72.22
45050;BME280;61798;48.048;-1.928;2022-08-20T08:57:36;101260.53;;;16.89;76.11
45050;BME280;61798;48.048;-1.928;2022-08-20T08:59:44;101266.22;;;17.07;74.85
45050;BME280;61798;48.048;-1.928;2022-08-20T09:01:56;101270.44;;;17.02;73.36
45050;BME280;61798;48.048;-1.928;2022-08-20T09:04:03;101264.56;;;17.06;73.36
45050;BME280;61798;48.048;-1.928;2022-08-20T09:06:16;101240.09;;;16.94;73.26
45050;BME280;61798;48.048;-1.928;2022-08-20T09:08:26;101232.81;;;16.94;73.13
45050;BME280;61798;48.048;-1.928;2022-08-20T09:10:34;101240.16;;;16.87;73.88
45050;BME280;61798;48.048;-1.928;2022-08-20T09:12:39;101239.66;;;16.97;69.62
45050;BME280;61798;48.048;-1.928;2022-08-20T09:14:47;101276.03;;;17.08;72.38
45050;BME280;61798;48.048;-1.928;2022-08-20T09:16:54;101266.28;;;17.00;72.60
45050;BME280;61798;48.048;-1.928;2022-08-20T09:18:59;101260.66;;;17.27;72.02
45050;BME280;61798;48.048;-1.928;2022-08-20T09:21:06;101280.94;;;17.43;71.62
45050;BME280;61798;48.048;-1.928;2022-08-20T09:23:12;101275.84;;;17.28;72.48
45050;BME280;61798;48.048;-1.928;2022-08-20T09:25:19;101262.66;;;17.76;68.27
45050;BME280;61798;48.048;-1.928;2022-08-20T09:27:24;101259.69;;;17.40;71.64
45050;BME280;61798;48.048;-1.928;2022-08-20T09:29:31;101251.88;;;17.51;71.67
45050;BME280;61798;48.048;-1.928;2022-08-20T09:31:37;101263.78;;;17.50;72.33
45050;BME280;61798;48.048;-1.928;2022-08-20T09:33:43;101249.41;;;17.49;68.15
45050;BME280;61798;48.048;-1.928;2022-08-20T09:35:49;101263.69;;;17.57;70.87
45050;BME280;61798;48.048;-1.928;2022-08-20T09:37:55;101262.56;;;17.46;72.34
45050;BME280;61798;48.048;-1.928;2022-08-20T09:40:01;101271.00;;;17.56;71.52
45050;BME280;61798;48.048;-1.928;2022-08-20T09:42:14;101272.66;;;17.57;70.58
45050;BME280;61798;48.048;-1.928;2022-08-20T09:44:21;101257.31;;;17.70;69.95
45050;BME280;61798;48.048;-1.928;2022-08-20T09:46:27;101265.34;;;17.95;69.02
45050;BME280;61798;48.048;-1.928;2022-08-20T09:48:33;101250.66;;;18.03;69.41
45050;BME280;61798;48.048;-1.928;2022-08-20T09:50:43;101268.59;;;18.35;69.69
45050;BME280;61798;48.048;-1.928;2022-08-20T09:52:51;101259.78;;;18.40;64.76
45050;BME280;61798;48.048;-1.928;2022-08-20T09:55:02;101259.88;;;18.33;67.74
45050;BME280;61798;48.048;-1.928;2022-08-20T09:57:08;101253.50;;;18.70;68.99
45050;BME280;61798;48.048;-1.928;2022-08-20T09:59:14;101238.06;;;18.40;68.08
45050;BME280;61798;48.048;-1.928;2022-08-20T10:01:21;101249.03;;;18.88;67.70
45050;BME280;61798;48.048;-1.928;2022-08-20T10:03:27;101259.31;;;18.86;62.88
45050;BME280;61798;48.048;-1.928;2022-08-20T10:05:33;101254.78;;;18.68;67.90
45050;BME280;61798;48.048;-1.928;2022-08-20T10:07:40;101253.44;;;19.01;64.11
45050;BME280;61798;48.048;-1.928;2022-08-20T10:09:46;101253.22;;;19.27;67.04
45050;BME280;61798;48.048;-1.928;2022-08-20T10:11:52;101255.16;;;19.68;64.07
45050;BME280;61798;48.048;-1.928;2022-08-20T10:13:57;101263.44;;;19.73;60.73
45050;BME280;61798;48.048;-1.928;2022-08-20T10:16:04;101237.47;;;19.53;62.97
45050;BME280;61798;48.048;-1.928;2022-08-20T10:18:10;101255.88;;;19.63;61.22
45050;BME280;61798;48.048;-1.928;2022-08-20T10:20:17;101236.72;;;19.82;60.63
45050;BME280;61798;48.048;-1.928;2022-08-20T10:22:24;101246.59;;;19.89;61.92
45050;BME280;61798;48.048;-1.928;2022-08-20T10:24:31;101218.19;;;19.96;59.55
45050;BME280;61798;48.048;-1.928;2022-08-20T10:26:38;101239.28;;;19.89;59.16
45050;BME280;61798;48.048;-1.928;2022-08-20T10:28:44;101241.16;;;19.89;58.06
45050;BME280;61798;48.048;-1.928;2022-08-20T10:30:50;101235.19;;;19.74;58.08
45050;BME280;61798;48.048;-1.928;2022-08-20T10:32:55;101199.88;;;19.62;60.00
45050;BME280;61798;48.048;-1.928;2022-08-20T10:35:02;101224.13;;;19.93;59.85
45050;BME280;61798;48.048;-1.928;2022-08-20T10:37:12;101224.06;;;20.17;61.06
45050;BME280;61798;48.048;-1.928;2022-08-20T10:39:19;101224.06;;;20.35;60.81
45050;BME280;61798;48.048;-1.928;2022-08-20T10:41:24;101235.03;;;20.11;57.54
45050;BME280;61798;48.048;-1.928;2022-08-20T10:43:30;101215.00;;;20.29;56.33
45050;BME280;61798;48.048;-1.928;2022-08-20T10:45:36;101229.25;;;20.19;55.45
45050;BME280;61798;48.048;-1.928;2022-08-20T10:47:43;101230.19;;;19.83;56.70
45050;BME280;61798;48.048;-1.928;2022-08-20T10:49:52;101229.19;;;20.02;60.47
45050;BME280;61798;48.048;-1.928;2022-08-20T10:51:59;101220.28;;;20.36;60.97
45050;BME280;61798;48.048;-1.928;2022-08-20T10:54:04;101228.97;;;20.67;56.26
45050;BME280;61798;48.048;-1.928;2022-08-20T10:56:10;101221.44;;;20.40;59.62
45050;BME280;61798;48.048;-1.928;2022-08-20T10:58:16;101213.38;;;20.63;57.20
45050;BME280;61798;48.048;-1.928;2022-08-20T11:00:22;101208.34;;;20.54;57.89
45050;BME280;61798;48.048;-1.928;2022-08-20T11:02:28;101220.63;;;20.91;58.95
45050;BME280;61798;48.048;-1.928;2022-08-20T11:04:35;101225.25;;;21.26;56.22
45050;BME280;61798;48.048;-1.928;2022-08-20T11:06:41;101212.16;;;20.53;55.91
45050;BME280;61798;48.048;-1.928;2022-08-20T11:08:47;101218.50;;;20.76;56.02
45050;BME280;61798;48.048;-1.928;2022-08-20T11:10:53;101224.44;;;21.08;57.81